Time;durP1;ratioP1;P1;durP2;ratioP2;P2;SDS_P1;SDS_P2;PMS_P1;PMS_P2;Temp;Humidity;BMP_temperature;BMP_pressure;BME280_temperature;BME280_humidity;BME280_pressure;Samples;Min_cycle;Max_cycle;Signal;HPM_P1;HPM_P2
2020/12/04 00:01:05;;;;;;;9.50;6.53;;;;;;;21.89;35.85;94806.97;5051014;28;20024;-80
2020/12/04 00:03:30;;;;;;;10.05;6.60;;;;;;;21.92;35.71;94822.28;5084601;28;21666;-80
2020/12/04 00:05:55;;;;;;;9.88;6.18;;;;;;;21.91;35.92;94826.22;5102773;28;20027;-80
2020/12/04 00:08:21;;;;;;;10.27;6.88;;;;;;;21.84;35.96;94824.03;5067653;28;20040;-80
2020/12/04 00:10:46;;;;;;;9.23;6.50;;;;;;;21.87;36.08;94825.75;5085065;28;20504;-80
2020/12/04 00:13:12;;;;;;;9.98;6.55;;;;;;;21.76;35.98;94793.22;5084921;28;20035;-80
2020/12/04 00:15:37;;;;;;;10.45;6.93;;;;;;;21.74;36.08;94818.16;5052078;28;20020;-80
2020/12/04 00:18:02;;;;;;;8.70;6.78;;;;;;;21.75;36.32;94818.91;5102611;28;20044;-79
2020/12/04 00:20:28;;;;;;;9.20;6.28;;;;;;;21.73;36.39;94821.38;5103105;28;20497;-80
2020/12/04 00:22:54;;;;;;;8.77;6.43;;;;;;;21.76;36.18;94831.25;5068315;28;20478;-80
2020/12/04 00:25:20;;;;;;;10.48;6.63;;;;;;;21.72;36.22;94826.09;5082650;28;20028;-80
2020/12/04 00:27:45;;;;;;;11.05;7.05;;;;;;;21.66;36.13;94821.94;5068973;28;20529;-80
2020/12/04 00:30:11;;;;;;;10.30;6.40;;;;;;;21.76;36.01;94820.38;5072022;28;20223;-79
2020/12/04 00:32:36;;;;;;;10.55;7.05;;;;;;;21.71;36.15;94829.31;5088591;28;20528;-79
2020/12/04 00:35:02;;;;;;;10.27;6.47;;;;;;;21.60;36.11;94807.66;5088291;28;20026;-80
2020/12/04 00:37:28;;;;;;;9.98;6.53;;;;;;;21.65;36.23;94809.59;5070824;28;20035;-80
2020/12/04 00:39:53;;;;;;;11.40;6.18;;;;;;;21.65;35.96;94812.31;5070933;28;20465;-80
2020/12/04 00:42:18;;;;;;;10.13;6.70;;;;;;;21.67;36.29;94820.69;5072569;28;20028;-80
2020/12/04 00:44:44;;;;;;;9.48;6.47;;;;;;;21.58;36.45;94810.09;5088208;28;20044;-80
2020/12/04 00:47:09;;;;;;;10.35;6.75;;;;;;;21.61;36.34;94825.41;5072395;28;20496;-80
2020/12/04 00:49:35;;;;;;;10.98;7.05;;;;;;;21.61;36.21;94806.38;5105684;28;20039;-80
2020/12/04 00:52:00;;;;;;;10.23;6.90;;;;;;;21.60;36.32;94815.78;5070265;28;20413;-80
2020/12/04 00:54:25;;;;;;;7.85;6.10;;;;;;;21.51;36.25;94805.22;5072425;28;20023;-80
2020/12/04 00:56:51;;;;;;;10.48;6.72;;;;;;;21.54;36.17;94809.66;5071594;28;20043;-79
2020/12/04 00:59:16;;;;;;;10.32;6.93;;;;;;;21.56;36.50;94810.59;5071574;28;20034;-80
2020/12/04 01:01:42;;;;;;;9.73;6.68;;;;;;;21.51;36.23;94805.94;5106404;28;20023;-80
2020/12/04 01:04:07;;;;;;;9.50;6.43;;;;;;;21.50;36.33;94790.16;5106505;28;20574;-80
2020/12/04 01:06:33;;;;;;;11.48;7.22;;;;;;;21.52;36.30;94791.13;5088711;28;20039;-80
2020/12/04 01:08:58;;;;;;;10.38;6.55;;;;;;;21.45;36.43;94790.91;5091069;28;20092;-79
2020/12/04 01:11:25;;;;;;;10.27;7.05;;;;;;;21.47;36.28;94789.16;5083946;28;20023;-80
2020/12/04 01:13:51;;;;;;;10.77;6.80;;;;;;;21.39;36.52;94784.75;5109489;28;20032;-80
2020/12/04 01:16:16;;;;;;;10.00;6.57;;;;;;;21.39;36.50;94776.59;5092835;28;20450;-80
2020/12/04 01:18:42;;;;;;;9.40;6.32;;;;;;;21.46;36.41;94782.28;5090629;28;20440;-80
2020/12/04 01:21:07;;;;;;;9.68;6.90;;;;;;;21.38;36.42;94780.53;5087485;28;20533;-80
2020/12/04 01:23:33;;;;;;;10.57;6.68;;;;;;;21.36;36.43;94776.84;5089408;28;20090;-80
2020/12/04 01:25:58;;;;;;;9.88;6.47;;;;;;;21.39;36.53;94763.03;5106573;28;20023;-80
2020/12/04 01:28:24;;;;;;;9.35;6.70;;;;;;;21.34;36.35;94752.91;5104471;28;20027;-80
2020/12/04 01:30:49;;;;;;;10.70;7.00;;;;;;;21.35;36.52;94759.81;5070554;28;20399;-79
2020/12/04 01:33:15;;;;;;;10.18;6.72;;;;;;;21.33;36.53;94748.72;5105821;28;20027;-80
2020/12/04 01:35:40;;;;;;;10.40;6.68;;;;;;;21.33;36.36;94739.81;5070308;28;20036;-80
2020/12/04 01:38:05;;;;;;;9.90;6.93;;;;;;;21.36;36.60;94745.00;5054329;28;20536;-80
2020/12/04 01:40:33;;;;;;;11.27;7.10;;;;;;;21.26;36.84;94746.53;5087127;28;20028;-79
2020/12/04 01:42:58;;;;;;;10.98;7.07;;;;;;;21.21;36.64;94736.44;5071972;28;20028;-81
2020/12/04 01:45:24;;;;;;;10.75;6.53;;;;;;;21.29;36.35;94742.81;5087623;28;20032;-79
2020/12/04 01:47:51;;;;;;;10.07;6.47;;;;;;;21.32;36.47;94738.38;5070237;28;20039;-81
2020/12/04 01:50:16;;;;;;;10.18;6.72;;;;;;;21.29;36.51;94745.53;5085919;28;20517;-81
2020/12/04 01:52:42;;;;;;;10.65;6.50;;;;;;;21.25;36.54;94733.47;5086515;28;20081;-79
2020/12/04 01:55:07;;;;;;;10.52;6.28;;;;;;;21.27;36.80;94737.16;5088141;28;20027;-80
2020/12/04 01:57:33;;;;;;;9.43;6.32;;;;;;;21.18;36.82;94718.44;5076275;28;20043;-80
2020/12/04 01:59:59;;;;;;;9.38;6.35;;;;;;;21.15;36.64;94714.00;5059958;28;20039;-81
2020/12/04 02:02:24;;;;;;;9.48;6.68;;;;;;;21.22;36.30;94713.47;5103171;28;20024;-80
2020/12/04 02:04:50;;;;;;;9.32;6.68;;;;;;;21.22;36.58;94724.31;5092454;28;20459;-80
2020/12/04 02:07:29;;;;;;;9.50;6.07;;;;;;;21.14;36.74;94698.94;5116701;28;20028;-80
2020/12/04 02:10:02;;;;;;;9.63;6.43;;;;;;;21.19;36.62;94730.75;5087664;28;20509;-80
2020/12/04 02:12:28;;;;;;;11.20;6.60;;;;;;;21.20;36.55;94715.94;5057237;28;21998;-80
2020/12/04 02:14:53;;;;;;;9.52;6.68;;;;;;;21.04;36.77;94686.91;5098995;28;20024;-80
2020/12/04 02:17:32;;;;;;;9.45;5.97;;;;;;;21.09;36.71;94682.69;5070542;28;20111;-81
2020/12/04 02:19:58;;;;;;;10.25;5.90;;;;;;;21.18;36.78;94706.81;5069283;28;20028;-80
2020/12/04 02:22:23;;;;;;;9.85;6.38;;;;;;;21.09;36.59;94694.31;5086604;28;20078;-80
2020/12/04 02:24:50;;;;;;;9.90;6.63;;;;;;;21.16;36.97;94699.19;5087605;28;20031;-80
2020/12/04 02:27:15;;;;;;;9.10;6.57;;;;;;;21.09;36.75;94707.13;5070136;28;20031;-80
2020/12/04 02:29:41;;;;;;;9.88;6.43;;;;;;;21.13;36.71;94699.47;5069793;28;20408;-80
2020/12/04 02:32:13;;;;;;;9.15;6.00;;;;;;;21.12;36.73;94711.53;5105113;28;20079;-80
2020/12/04 02:34:38;;;;;;;9.18;5.90;;;;;;;21.03;36.79;94709.88;5085673;28;20024;-79
2020/12/04 02:37:05;;;;;;;8.75;5.53;;;;;;;21.07;36.60;94707.63;5069821;28;20031;-80
2020/12/04 02:39:30;;;;;;;8.40;6.03;;;;;;;21.07;36.56;94701.47;5075894;28;20485;-80
2020/12/04 02:41:56;;;;;;;9.20;6.05;;;;;;;21.08;36.59;94703.66;5069525;28;20023;-80
2020/12/04 02:44:21;;;;;;;10.05;5.85;;;;;;;21.10;36.74;94701.19;5085776;28;20039;-80
2020/12/04 02:46:47;;;;;;;8.23;5.93;;;;;;;21.04;36.90;94697.75;5106097;28;20031;-80
2020/12/04 02:49:13;;;;;;;8.98;6.20;;;;;;;21.01;36.74;94693.34;5052610;28;20035;-80
2020/12/04 02:51:43;;;;;;;10.18;6.25;;;;;;;21.08;36.72;94681.22;5104289;28;20035;-80
2020/12/04 02:54:08;;;;;;;;;;;;;;;21.02;36.85;94700.25;5086193;28;20107;-80
2020/12/04 02:56:34;;;;;;;9.65;6.47;;;;;;;21.05;36.98;94701.97;5069552;28;20055;-80
2020/12/04 02:58:59;;;;;;;11.25;6.60;;;;;;;21.09;36.87;94699.72;5086280;28;20047;-80
2020/12/04 03:01:25;;;;;;;9.93;6.60;;;;;;;21.09;36.54;94693.53;5085993;28;20028;-79
2020/12/04 03:03:50;;;;;;;9.25;6.15;;;;;;;21.09;36.68;94693.53;5084682;28;20040;-80
2020/12/04 03:06:15;;;;;;;9.85;6.30;;;;;;;21.02;36.95;94683.22;5104676;28;20038;-80
2020/12/04 03:08:41;;;;;;;9.35;5.93;;;;;;;20.95;36.64;94678.31;5104685;28;20032;-80
2020/12/04 03:11:06;;;;;;;9.27;6.22;;;;;;;20.95;36.74;94683.03;5104846;28;20035;-81
2020/12/04 03:13:32;;;;;;;8.60;5.45;;;;;;;20.95;36.64;94677.59;5086345;28;20786;-80
2020/12/04 03:15:57;;;;;;;9.13;6.05;;;;;;;20.98;36.86;94688.94;5086555;28;20023;-80
2020/12/04 03:18:22;;;;;;;9.77;6.03;;;;;;;21.02;36.82;94689.38;5086477;28;20043;-80
2020/12/04 03:20:48;;;;;;;9.20;5.88;;;;;;;21.04;36.76;94705.19;5085830;28;20016;-80
2020/12/04 03:23:13;;;;;;;8.75;5.82;;;;;;;20.96;36.65;94689.94;5086344;28;20020;-80
2020/12/04 03:25:39;;;;;;;10.30;5.90;;;;;;;21.02;37.03;94696.81;5104871;28;20019;-80
2020/12/04 03:28:04;;;;;;;7.75;5.35;;;;;;;20.99;36.48;94693.09;5085076;28;20492;-80
2020/12/04 03:30:30;;;;;;;9.50;5.60;;;;;;;20.96;36.79;94706.22;5067089;28;20024;-79
2020/12/04 03:32:56;;;;;;;8.93;5.80;;;;;;;20.93;36.75;94690.94;5086796;28;20481;-79
2020/12/04 03:35:21;;;;;;;8.52;5.53;;;;;;;20.95;36.74;94699.31;5085136;28;20027;-79
2020/12/04 03:37:47;;;;;;;9.18;5.55;;;;;;;20.93;36.83;94707.22;5102816;28;20040;-79
2020/12/04 03:40:12;;;;;;;9.00;5.68;;;;;;;20.93;37.09;94690.94;5103610;28;20015;-79
2020/12/04 03:42:38;;;;;;;8.13;5.38;;;;;;;20.93;36.82;94696.38;5103829;28;20104;-78
2020/12/04 03:45:03;;;;;;;9.10;5.95;;;;;;;20.93;36.95;94709.94;5068583;28;20435;-78
2020/12/04 03:47:29;;;;;;;7.78;5.32;;;;;;;21.00;36.69;94712.84;5086138;28;20027;-79
2020/12/04 03:49:54;;;;;;;10.18;6.10;;;;;;;20.95;36.94;94715.59;5085438;28;20035;-78
2020/12/04 03:52:20;;;;;;;8.98;5.47;;;;;;;21.07;36.87;94713.03;5116202;27;20044;-78
2020/12/04 03:54:49;;;;;;;8.75;5.50;;;;;;;21.15;36.81;94714.00;5086170;28;20035;-80
2020/12/04 03:57:14;;;;;;;8.88;5.57;;;;;;;21.18;36.76;94706.81;5103448;28;20023;-79
2020/12/04 03:59:40;;;;;;;9.48;5.88;;;;;;;21.22;36.47;94708.03;5067806;28;20028;-79
2020/12/04 04:02:05;;;;;;;8.00;4.95;;;;;;;21.27;36.31;94699.13;5085353;28;20031;-79
2020/12/04 04:04:30;;;;;;;8.00;4.95;;;;;;;21.35;36.26;94710.94;5051173;28;20027;-79
2020/12/04 04:06:56;;;;;;;7.90;5.10;;;;;;;21.33;36.45;94713.44;5084801;28;20036;-79
2020/12/04 04:09:21;;;;;;;9.00;5.43;;;;;;;21.40;36.52;94723.72;5103301;28;20064;-79
2020/12/04 04:11:47;;;;;;;7.00;4.75;;;;;;;21.37;36.19;94707.72;5084585;28;20031;-79
2020/12/04 04:14:12;;;;;;;7.60;5.32;;;;;;;21.47;36.35;94706.94;5085197;28;20044;-79
2020/12/04 04:16:38;;;;;;;6.72;4.70;;;;;;;21.48;36.42;94708.41;5103283;28;20028;-79
2020/12/04 04:19:03;;;;;;;7.13;4.97;;;;;;;21.51;36.37;94707.41;5084394;28;20031;-79
2020/12/04 04:21:29;;;;;;;7.88;4.82;;;;;;;21.50;36.15;94701.22;5103773;28;20024;-79
2020/12/04 04:23:54;;;;;;;7.15;4.78;;;;;;;21.50;36.34;94690.34;5104483;28;20042;-79
2020/12/04 04:26:19;;;;;;;8.10;4.85;;;;;;;21.55;36.31;94686.13;5084226;28;20093;-79
2020/12/04 04:28:45;;;;;;;7.07;4.45;;;;;;;21.54;36.30;94690.09;5103147;28;20128;-79
2020/12/04 04:31:12;;;;;;;6.93;4.97;;;;;;;21.59;36.23;94697.47;5085466;28;20057;-78
2020/12/04 04:33:37;;;;;;;7.00;4.85;;;;;;;21.60;35.78;94704.41;5083087;28;20519;-80
2020/12/04 04:36:03;;;;;;;7.38;4.40;;;;;;;21.55;36.12;94697.00;5102946;28;20027;-79
2020/12/04 04:38:28;;;;;;;6.85;4.70;;;;;;;21.63;36.41;94692.50;5104275;28;20027;-80
2020/12/04 04:40:56;;;;;;;7.47;4.43;;;;;;;21.65;35.99;94690.75;5093013;28;20032;-80
2020/12/04 04:43:22;;;;;;;7.65;4.68;;;;;;;21.63;36.07;94682.38;5074489;28;20036;-79
2020/12/04 04:45:48;;;;;;;7.53;4.28;;;;;;;21.71;36.11;94698.88;5058945;28;20051;-79
2020/12/04 04:48:26;;;;;;;6.57;4.30;;;;;;;21.70;35.96;94692.72;5098269;28;20028;-79
2020/12/04 04:50:57;;;;;;;6.53;4.43;;;;;;;21.67;36.08;94687.53;5080863;28;20162;-79
2020/12/04 04:53:23;;;;;;;6.90;4.50;;;;;;;21.69;35.91;94685.06;5087826;28;20121;-80
2020/12/04 04:55:49;;;;;;;6.40;4.43;;;;;;;21.74;36.08;94687.00;5070303;28;20963;-80
2020/12/04 04:58:14;;;;;;;6.97;4.50;;;;;;;21.65;36.11;94679.16;5103344;28;20047;-79
2020/12/04 05:00:40;;;;;;;6.18;4.18;;;;;;;21.70;35.86;94670.22;5085570;28;20031;-79
2020/12/04 05:03:07;;;;;;;7.63;4.72;;;;;;;21.71;35.99;94677.13;5067612;28;20039;-80
2020/12/04 05:05:46;;;;;;;6.20;4.35;;;;;;;21.79;36.04;94694.34;5067541;28;20028;-80
2020/12/04 05:08:15;;;;;;;6.05;3.80;;;;;;;21.83;35.86;94683.94;5082630;28;20114;-80
2020/12/04 05:10:42;;;;;;;6.82;4.57;;;;;;;21.87;35.93;94689.84;5085436;28;20023;-80
2020/12/04 05:13:07;;;;;;;6.72;4.30;;;;;;;21.82;35.84;94671.59;5104348;28;20157;-79
2020/12/04 05:15:33;;;;;;;7.07;4.15;;;;;;;21.93;35.81;94694.72;5053708;28;20028;-80
2020/12/04 05:18:08;;;;;;;6.55;4.47;;;;;;;21.97;35.75;94695.19;5089279;28;20050;-80
2020/12/04 05:20:38;;;;;;;6.28;4.07;;;;;;;21.94;35.95;94688.06;5105989;28;20028;-79
2020/12/04 05:23:03;;;;;;;6.85;4.40;;;;;;;21.92;36.10;94680.91;5087941;28;20111;-79
2020/12/04 05:25:35;;;;;;;6.93;4.32;;;;;;;21.93;36.47;94672.97;5083044;28;20035;-78
2020/12/04 05:28:14;;;;;;;6.95;4.10;;;;;;;22.01;36.59;94679.31;5088263;28;20111;-79
2020/12/04 05:30:41;;;;;;;7.07;4.00;;;;;;;21.96;36.84;94665.81;5088037;28;20056;-81
2020/12/04 05:33:06;;;;;;;6.40;3.83;;;;;;;22.03;36.87;94681.53;5058025;28;20027;-77
2020/12/04 05:35:32;;;;;;;6.80;3.80;;;;;;;22.04;37.29;94672.88;5070179;28;21064;-80
2020/12/04 05:38:11;;;;;;;6.22;4.05;;;;;;;22.12;37.18;94684.69;5073684;28;20537;-80
2020/12/04 05:40:38;;;;;;;12.68;5.20;;;;;;;22.06;36.82;94681.28;5104084;28;20023;-79
2020/12/04 05:43:03;;;;;;;7.20;3.65;;;;;;;22.12;36.89;94683.94;5046982;27;20516;-79
2020/12/04 05:45:30;;;;;;;6.57;4.47;;;;;;;22.14;36.87;94686.91;5082929;28;20050;-81
2020/12/04 05:47:55;;;;;;;7.28;3.95;;;;;;;22.08;36.75;94667.91;5102397;28;20035;-81
2020/12/04 05:50:21;;;;;;;6.82;3.72;;;;;;;22.14;36.77;94690.34;5089087;28;20040;-82
2020/12/04 05:52:49;;;;;;;6.60;3.80;;;;;;;22.12;36.87;94683.94;5103140;28;20038;-80
2020/12/04 05:55:15;;;;;;;6.03;4.10;;;;;;;22.18;36.85;94688.09;5104313;28;20027;-80
2020/12/04 05:57:53;;;;;;;5.82;4.25;;;;;;;22.18;36.68;94690.81;5102458;28;20047;-79
2020/12/04 06:00:19;;;;;;;6.43;3.90;;;;;;;22.18;36.75;94693.53;5118130;27;20023;-79
2020/12/04 06:02:46;;;;;;;6.22;3.42;;;;;;;22.17;36.63;94675.72;5086796;28;20027;-80
2020/12/04 06:05:11;;;;;;;5.65;3.22;;;;;;;22.20;36.81;94684.84;5085968;28;20042;-79
2020/12/04 06:07:37;;;;;;;5.50;3.50;;;;;;;22.15;36.64;94672.78;5102026;28;20588;-80
2020/12/04 06:10:02;;;;;;;6.07;4.00;;;;;;;22.17;36.48;94670.28;5069207;28;20066;-81
2020/12/04 06:12:28;;;;;;;5.93;3.60;;;;;;;22.15;36.39;94682.91;5071701;28;20558;-80
2020/12/04 06:14:53;;;;;;;6.88;3.88;;;;;;;22.20;36.40;94691.03;5072751;28;20032;-77
2020/12/04 06:17:19;;;;;;;8.15;3.92;;;;;;;22.21;36.36;94681.66;5105040;28;20028;-78
2020/12/04 06:19:44;;;;;;;6.70;3.83;;;;;;;22.25;36.31;94690.25;5088876;28;20035;-78
2020/12/04 06:22:14;;;;;;;5.95;3.38;;;;;;;22.22;36.11;94693.25;5087724;28;20024;-77
2020/12/04 06:24:52;;;;;;;6.32;3.80;;;;;;;22.30;35.98;94700.38;5113134;28;20045;-81
2020/12/04 06:27:44;;;;;;;6.53;3.38;;;;;;;22.30;35.97;94692.22;5120186;28;20030;-79
2020/12/04 06:30:16;;;;;;;7.22;3.88;;;;;;;22.20;36.07;94680.16;5072901;28;20055;-83
2020/12/04 06:32:48;;;;;;;6.32;3.53;;;;;;;22.34;35.91;94706.25;5089637;28;20031;-80
2020/12/04 06:35:13;;;;;;;6.18;3.38;;;;;;;22.38;36.09;94706.72;5077695;28;20040;-79
2020/12/04 06:37:41;;;;;;;5.68;3.35;;;;;;;22.37;36.26;94685.44;5069922;28;20039;-84
2020/12/04 06:40:26;;;;;;;7.15;3.85;;;;;;;22.43;36.07;94708.63;5068124;28;20055;-80
2020/12/04 06:42:59;;;;;;;5.32;3.53;;;;;;;22.42;36.21;94718.06;5084707;28;20026;-80
2020/12/04 06:45:47;;;;;;;5.80;3.35;;;;;;;22.43;35.99;94719.50;5087974;28;20070;-81
2020/12/04 06:48:13;;;;;;;6.20;3.50;;;;;;;22.39;36.19;94713.63;5052578;28;20520;-81
2020/12/04 06:50:43;;;;;;;5.18;3.22;;;;;;;22.47;36.01;94730.84;5050636;28;20050;-90
2020/12/04 06:53:09;;;;;;;6.93;3.33;;;;;;;22.23;36.23;94687.31;5055585;28;20049;-80
2020/12/04 06:55:35;;;;;;;5.25;3.58;;;;;;;22.56;35.87;94722.34;5103738;28;20035;-82
2020/12/04 06:58:01;;;;;;;6.32;3.55;;;;;;;22.55;35.89;94720.88;5067328;28;20080;-82
2020/12/04 07:00:27;;;;;;;7.55;3.45;;;;;;;22.56;35.95;94723.09;5076631;28;20016;-85
2020/12/04 07:02:52;;;;;;;6.07;3.70;;;;;;;22.62;35.69;94731.19;5101991;28;20085;-82
2020/12/04 07:05:22;;;;;;;6.65;3.70;;;;;;;22.70;35.84;94734.81;5084880;28;20520;-80
2020/12/04 07:07:48;;;;;;;6.50;3.42;;;;;;;22.71;35.72;94728.13;5085380;28;20550;-81
2020/12/04 07:10:14;;;;;;;6.88;3.58;;;;;;;22.77;35.64;94731.53;5083051;28;20031;-86
2020/12/04 07:12:39;;;;;;;5.80;3.72;;;;;;;22.82;35.61;94734.19;5055973;28;20041;-79
2020/12/04 07:15:05;;;;;;;6.85;3.42;;;;;;;22.82;35.60;94717.13;5068774;28;20027;-84
2020/12/04 07:17:30;;;;;;;7.47;3.50;;;;;;;22.94;35.44;94736.31;5114147;28;20023;-85
2020/12/04 07:19:56;;;;;;;7.60;3.83;;;;;;;22.98;35.82;94725.84;5075676;28;20039;-81
2020/12/04 07:22:22;;;;;;;5.57;3.60;;;;;;;23.03;35.18;94727.78;5092870;28;20027;-92
2020/12/04 07:24:50;;;;;;;6.60;3.90;;;;;;;23.15;35.37;94734.56;5076358;28;20028;-90
2020/12/04 07:27:17;;;;;;;5.75;3.40;;;;;;;23.21;35.30;94721.59;5070623;28;20032;-91
2020/12/04 07:29:43;;;;;;;6.13;3.72;;;;;;;23.30;34.97;94717.78;5059733;28;20038;-91
2020/12/04 07:32:09;;;;;;;6.55;3.80;;;;;;;23.39;34.67;94715.41;5076279;28;20028;-94
2020/12/04 07:34:38;;;;;;;5.93;3.47;;;;;;;23.45;34.66;94713.34;5089758;28;20077;-93
2020/12/04 07:37:07;;;;;;;6.10;3.65;;;;;;;23.53;34.49;94719.69;5102633;28;20080;-85
2020/12/04 07:39:36;;;;;;;7.68;4.18;;;;;;;23.55;35.03;94703.56;5083587;28;20035;-85
2020/12/04 07:42:02;;;;;;;6.90;3.50;;;;;;;23.69;34.60;94710.56;5083199;28;20028;-86
2020/12/04 07:44:33;;;;;;;5.55;3.17;;;;;;;23.64;34.88;94695.03;5069057;28;20040;-87
2020/12/04 07:47:04;;;;;;;7.95;4.10;;;;;;;23.83;34.82;94714.81;5069605;28;20050;-86
2020/12/04 07:49:30;;;;;;;5.07;3.33;;;;;;;23.95;35.17;94717.56;5076315;28;20027;-90
2020/12/04 07:52:10;;;;;;;6.47;3.72;;;;;;;23.98;34.58;94705.63;5084267;28;20035;-88
2020/12/04 07:54:35;;;;;;;6.32;3.85;;;;;;;24.03;34.92;94712.97;5102184;28;20031;-93
2020/12/04 07:57:01;;;;;;;6.60;4.00;;;;;;;24.13;34.44;94722.25;5085980;28;20093;-86
2020/12/04 07:59:28;;;;;;;5.30;3.20;;;;;;;24.21;34.46;94706.72;5083816;28;20019;-87
2020/12/04 08:01:54;;;;;;;6.50;3.60;;;;;;;24.23;35.93;94715.16;5085539;28;20548;-90
2020/12/04 08:04:19;;;;;;;8.88;4.78;;;;;;;24.20;35.39;94716.19;5103486;28;20028;-82
2020/12/04 08:06:48;;;;;;;6.55;4.00;;;;;;;24.23;35.59;94715.16;5100388;28;20028;-83
2020/12/04 08:09:15;;;;;;;5.80;3.63;;;;;;;24.28;35.27;94717.03;5084353;28;20031;-82
2020/12/04 08:11:54;;;;;;;6.25;3.85;;;;;;;24.32;35.39;94712.00;5083547;28;20501;-80
2020/12/04 08:14:27;;;;;;;6.35;3.60;;;;;;;24.36;35.56;94717.91;5085144;28;20285;-80
2020/12/04 08:16:57;;;;;;;6.32;3.70;;;;;;;24.33;34.91;94710.78;5101547;28;20028;-81
2020/12/04 08:19:29;;;;;;;6.28;3.40;;;;;;;24.44;35.37;94721.50;5066377;28;20093;-83
2020/12/04 08:21:59;;;;;;;6.70;3.75;;;;;;;24.44;34.70;94713.31;5097932;28;20063;-89
2020/12/04 08:24:25;;;;;;;7.07;4.32;;;;;;;24.59;34.84;94724.47;5088126;28;20027;-92
2020/12/04 08:27:20;;;;;;;7.25;4.00;;;;;;;24.64;34.50;94715.44;5095818;28;20116;-93
2020/12/04 08:30:06;;;;;;;5.38;3.63;;;;;;;24.73;34.35;94701.38;5104880;28;20201;-92
2020/12/04 08:32:31;;;;;;;5.53;3.58;;;;;;;24.76;34.43;94713.97;5088694;28;20119;-91
2020/12/04 08:35:35;;;;;;;7.32;3.80;;;;;;;24.79;33.74;94715.66;5088813;28;20032;-91
2020/12/04 08:38:18;;;;;;;7.18;3.40;;;;;;;24.79;33.92;94689.06;5085507;28;20042;-82
2020/12/04 08:40:46;;;;;;;5.78;3.55;;;;;;;24.85;33.59;94681.50;5089743;28;20092;-93
2020/12/04 08:43:16;;;;;;;5.25;3.45;;;;;;;24.85;33.88;94681.50;5058247;28;20024;-93
2020/12/04 08:45:45;;;;;;;7.75;3.67;;;;;;;24.94;33.56;94679.06;5070874;28;20047;-92
2020/12/04 08:48:17;;;;;;;5.72;3.67;;;;;;;24.91;33.49;94669.19;5057114;28;20024;-91
2020/12/04 08:50:47;;;;;;;6.07;3.53;;;;;;;24.98;33.20;94676.75;5093449;28;20059;-88
2020/12/04 08:53:14;;;;;;;6.05;3.22;;;;;;;25.02;33.41;94671.00;5090278;28;20030;-88
2020/12/04 08:55:47;;;;;;;6.18;3.80;;;;;;;25.01;33.44;94677.75;5090165;28;20042;-83
2020/12/04 08:58:14;;;;;;;5.75;3.50;;;;;;;25.05;33.21;94678.88;5071806;28;21680;-83
2020/12/04 09:00:40;;;;;;;6.95;3.60;;;;;;;25.14;33.35;94685.91;5053813;28;20032;-84
2020/12/04 09:03:06;;;;;;;6.57;3.72;;;;;;;25.13;33.35;94682.44;5088094;28;20045;-86
2020/12/04 09:05:31;;;;;;;6.65;3.65;;;;;;;25.16;32.99;94678.66;5069271;28;20558;-85
2020/12/04 09:07:57;;;;;;;6.32;3.83;;;;;;;25.18;33.16;94681.56;5077481;28;20481;-88
2020/12/04 09:10:25;;;;;;;7.07;3.90;;;;;;;25.19;32.97;94683.06;5060939;28;20130;-81
2020/12/04 09:12:50;;;;;;;6.05;3.80;;;;;;;25.22;33.26;94676.53;5056031;28;20826;-88
2020/12/04 09:15:22;;;;;;;6.10;4.05;;;;;;;25.22;33.17;94681.28;5107359;28;20023;-88
2020/12/04 09:17:47;;;;;;;7.00;3.55;;;;;;;25.22;33.07;94671.06;5085237;28;20057;-83
2020/12/04 09:20:14;;;;;;;5.90;3.50;;;;;;;25.18;32.89;94654.25;5068488;28;20081;-84
2020/12/04 09:22:43;;;;;;;6.20;3.30;;;;;;;25.27;32.81;94664.00;5087530;28;20027;-83
2020/12/04 09:25:10;;;;;;;6.10;3.90;;;;;;;25.27;32.99;94667.47;5105950;28;20626;-84
2020/12/04 09:27:35;;;;;;;6.97;3.92;;;;;;;25.31;33.12;94663.16;5101073;28;20550;-83
2020/12/04 09:30:01;;;;;;;6.53;3.40;;;;;;;25.30;32.69;94644.53;5089181;28;20031;-92
2020/12/04 09:32:27;;;;;;;5.47;3.72;;;;;;;25.33;32.71;94654.41;5056480;28;21499;-87
2020/12/04 09:34:53;;;;;;;6.15;3.72;;;;;;;25.37;33.13;94660.31;5055844;28;20533;-82
2020/12/04 09:37:23;;;;;;;7.65;4.10;;;;;;;25.32;32.89;94647.50;5105621;28;20042;-82
2020/12/04 09:39:54;;;;;;;7.03;3.58;;;;;;;25.39;32.62;94652.28;5099127;28;20171;-86
2020/12/04 09:42:20;;;;;;;5.82;3.60;;;;;;;25.39;32.87;94649.56;5071368;28;20116;-89
2020/12/04 09:44:45;;;;;;;6.20;3.63;;;;;;;25.42;33.25;94645.75;5080312;28;20070;-88
2020/12/04 09:47:11;;;;;;;6.47;4.22;;;;;;;25.41;32.57;94655.22;5111628;28;20085;-88
2020/12/04 09:49:37;;;;;;;5.72;3.40;;;;;;;25.41;32.94;94633.34;5102160;28;20099;-88
2020/12/04 09:52:02;;;;;;;7.07;4.00;;;;;;;25.49;32.75;94650.59;5083356;28;20035;-91
2020/12/04 09:54:28;;;;;;;5.38;3.60;;;;;;;25.50;32.40;94652.03;5068723;28;20027;-90
2020/12/04 09:56:54;;;;;;;6.80;4.07;;;;;;;25.42;32.77;94634.84;5098737;28;20032;-91
2020/12/04 09:59:20;;;;;;;7.65;3.88;;;;;;;25.49;32.59;94654.03;5064666;28;20516;-92
2020/12/04 10:01:50;;;;;;;6.43;3.90;;;;;;;25.54;32.50;94663.38;5078607;28;20035;-92
2020/12/04 10:04:15;;;;;;;7.07;3.90;;;;;;;25.55;32.72;94659.41;5111841;28;20042;-90
2020/12/04 10:06:41;;;;;;;6.90;4.03;;;;;;;25.46;32.72;94660.56;5057686;28;20016;-81
2020/12/04 10:09:06;;;;;;;6.72;3.88;;;;;;;25.51;32.85;94648.03;5091654;28;20044;-80
2020/12/04 10:11:32;;;;;;;9.00;3.90;;;;;;;25.53;32.82;94640.03;5069702;28;20107;-78
2020/12/04 10:13:57;;;;;;;8.23;3.80;;;;;;;25.65;32.93;94652.97;5068040;28;20059;-79
2020/12/04 10:16:23;;;;;;;8.02;3.75;;;;;;;25.70;33.21;94654.09;5069416;28;20059;-78
2020/12/04 10:18:48;;;;;;;6.15;3.30;;;;;;;25.70;32.99;94648.63;5086518;28;20417;-78
2020/12/04 10:21:14;;;;;;;9.88;3.72;;;;;;;25.70;32.97;94648.63;5109542;28;20031;-79
2020/12/04 10:23:39;;;;;;;6.72;3.67;;;;;;;25.59;33.04;94644.13;5085746;28;20031;-79
2020/12/04 10:26:04;;;;;;;8.13;3.25;;;;;;;25.61;33.27;94635.41;5086976;28;20032;-79
2020/12/04 10:28:32;;;;;;;7.03;3.42;;;;;;;25.57;33.10;94635.72;5086746;28;20040;-79
2020/12/04 10:30:58;;;;;;;6.22;3.30;;;;;;;25.65;33.68;94630.34;5085915;28;20489;-81
2020/12/04 10:33:24;;;;;;;6.97;3.92;;;;;;;25.71;33.52;94631.69;5068844;28;20031;-80
2020/12/04 10:35:49;;;;;;;7.15;3.72;;;;;;;25.62;33.62;94623.16;5068731;28;20039;-79
2020/12/04 10:38:14;;;;;;;6.00;3.90;;;;;;;25.64;33.45;94624.16;5068851;28;20413;-79
2020/12/04 10:40:40;;;;;;;9.10;3.70;;;;;;;25.67;33.47;94625.81;5049794;28;20489;-82
2020/12/04 10:43:05;;;;;;;9.57;4.15;;;;;;;25.61;33.24;94619.00;5068776;28;20512;-84
2020/12/04 10:45:31;;;;;;;6.45;3.63;;;;;;;25.63;33.30;94621.91;5085618;28;20516;-83
2020/12/04 10:47:56;;;;;;;6.45;3.58;;;;;;;25.62;33.50;94612.97;5097883;27;20390;-83
2020/12/04 10:50:22;;;;;;;7.07;4.15;;;;;;;25.62;33.27;94612.22;5102646;28;20102;-82
2020/12/04 10:52:47;;;;;;;7.90;3.92;;;;;;;25.61;33.39;94608.06;5099648;28;20079;-81
2020/12/04 10:55:12;;;;;;;6.93;3.90;;;;;;;25.62;32.88;94612.22;5085474;28;20023;-84
2020/12/04 10:57:38;;;;;;;8.45;4.25;;;;;;;25.60;33.03;94612.03;5084347;28;20043;-83
2020/12/04 11:00:04;;;;;;;7.75;4.05;;;;;;;25.57;33.31;94604.91;5084084;28;20036;-84
2020/12/04 11:02:31;;;;;;;7.20;3.58;;;;;;;25.59;33.17;94594.16;5083664;28;20040;-84
2020/12/04 11:07:41;;;;;;;7.00;3.85;;;;;;;25.61;32.87;94591.63;5098059;28;20046;-84
2020/12/04 11:10:06;;;;;;;7.03;3.95;;;;;;;25.61;32.73;94586.16;5081954;28;20031;-77
2020/12/04 11:12:31;;;;;;;7.45;3.95;;;;;;;25.70;32.85;94599.41;5103275;28;20096;-80
2020/12/04 11:14:57;;;;;;;6.47;4.00;;;;;;;25.70;32.88;94593.94;5066282;28;20031;-79
2020/12/04 11:17:22;;;;;;;6.55;4.32;;;;;;;25.49;33.04;94576.75;5098566;28;20035;-80
2020/12/04 11:19:48;;;;;;;6.72;4.35;;;;;;;25.52;32.92;94581.16;5101008;28;20092;-79
2020/12/04 11:22:14;;;;;;;7.45;4.53;;;;;;;25.53;32.55;94590.81;5099377;28;20042;-80
2020/12/04 11:24:40;;;;;;;5.90;3.95;;;;;;;25.61;33.10;94586.91;5065992;28;20032;-81
2020/12/04 11:27:05;;;;;;;6.80;3.70;;;;;;;25.54;32.82;94570.41;5102854;28;20097;-81
2020/12/04 11:29:31;;;;;;;7.50;4.45;;;;;;;25.62;32.69;94582.16;5069203;28;20039;-82
2020/12/04 11:31:56;;;;;;;6.45;4.07;;;;;;;25.59;32.49;94594.16;5104474;28;20024;-81
2020/12/04 11:34:22;;;;;;;7.00;4.35;;;;;;;25.49;32.59;94563.09;5086052;28;20031;-80